モンテレー の空港の天気 - METARとTAF

ヘネラル・マリアノ・エソコベド国際空港 ( MMMY / MTY ) - メキシコ ヌエボ・レオン州モンテレー
飛行場実況気象(Metar)
観測時間05/27 18:40 CDT (05/27 23:40 UTC)
風向・風速南東 7m/s
視程10km以上
天気現象
なし
気温32℃
湿度46%
気圧1009hPa
METARMMMY 272340Z 13014KT 15SM SKC 32/19 A2979 RMK SLP/// 5//// 9//
過去の天気等 Google飛行場航空写真 Wunderground天気予報

過去48時間のMETAR

飛行場予報(TAF)
発表時間: 5/27 18:23 CDT (5/27 23:23 UTC)
予報対象時間: 27日19時 CDT ~ 29日1時 CDT
風向・風速南東 6m/s
視程10km以上
全天の4割程度の雲 雲底高度 910m
27日22時 CDT から
風向・風速静穏
視程10km以上
全天の4割程度の雲 雲底高度 7620m
28日5時 CDT ~ 28日6時 CDT に徐々に
視程6440m
天気現象煙霧
28日6時 CDT ~ 28日10時 CDT に一時的に
全天の8割程度の雲 雲底高度 300m
28日11時 CDT から
風向・風速東 3m/s
視程10km以上
天気現象煙霧
全天の4割程度の雲 雲底高度 610m
28日14時 CDT から
風向・風速東 5m/s
視程10km以上
全天の4割程度の雲 雲底高度 1220m
全天の4割程度の雲 雲底高度 7620m
28日20時 CDT から
風向・風速西北西 4m/s
視程10km以上
天気現象周辺で 雨
全天の4割程度の積乱雲 雲底高度 910m
全天の8割程度の雲 雲底高度 7620m
28日21時 CDT ~ 29日1時 CDT に一時的に
視程3220m
天気現象雷雨
全天を覆う積乱雲 雲底高度 300m
TAF MMMY 272323Z 2800/2906 14012KT P6SM SCT030 TN21/2812Z TX33/2822Z
FM280300 00000KT P6SM SCT250
BECMG 2810/2811 4SM HZ
TEMPO 2811/2815 BKN010
FM281600 10006KT 6SM HZ SCT020
FM281900 10010KT P6SM SCT040 SCT250
FM290100 30008KT P6SM VC RA SCT030CB BKN250
TEMPO 2902/2906 2SM TSRA OVC010CB